Time;durP1;ratioP1;P1;durP2;ratioP2;P2;SDS_P1;SDS_P2;PMS_P1;PMS_P2;Temp;Humidity;BMP_temperature;BMP_pressure;BME280_temperature;BME280_humidity;BME280_pressure;Samples;Min_cycle;Max_cycle;Signal;HPM_P1;HPM_P2
2021/06/16 00:01:18;;;;;;;5.63;3.58;;;;;;;;;;5138606;27;20038;-79
2021/06/16 00:03:44;;;;;;;6.22;3.50;;;;;;;;;;5138629;27;20495;-79
2021/06/16 00:06:10;;;;;;;10.88;4.20;;;;;;;;;;5138602;27;20031;-79
2021/06/16 00:08:36;;;;;;;6.07;3.75;;;;;;;;;;5138480;27;20038;-80
2021/06/16 00:11:02;;;;;;;4.10;3.60;;;;;;;;;;5138442;27;20019;-80
2021/06/16 00:13:28;;;;;;;6.13;4.00;;;;;;;;;;5120224;27;20023;-81
2021/06/16 00:15:54;;;;;;;8.00;3.92;;;;;;;;;;5136455;27;20152;-81
2021/06/16 00:18:21;;;;;;;7.30;4.13;;;;;;;;;;5131908;27;20440;-81
2021/06/16 00:20:47;;;;;;;7.60;3.95;;;;;;;;;;5138372;27;20027;-81
2021/06/16 00:23:13;;;;;;;7.32;3.75;;;;;;;;;;5120134;27;20135;-80
2021/06/16 00:25:39;;;;;;;5.88;3.90;;;;;;;;;;5138243;27;20027;-80
2021/06/16 00:28:05;;;;;;;7.38;4.00;;;;;;;;;;5137939;27;20046;-79
2021/06/16 00:30:31;;;;;;;7.03;3.65;;;;;;;;;;5138107;27;20055;-79
2021/06/16 00:32:57;;;;;;;10.35;4.10;;;;;;;;;;5138373;27;20019;-80
2021/06/16 00:35:23;;;;;;;7.82;3.80;;;;;;;;;;5119925;28;20023;-80
2021/06/16 00:37:51;;;;;;;10.63;4.80;;;;;;;;;;5119745;27;20070;-79
2021/06/16 00:40:21;;;;;;;6.32;3.92;;;;;;;;;;5138089;27;20023;-79
2021/06/16 00:42:48;;;;;;;6.93;4.28;;;;;;;;;;5137958;28;20033;-79
2021/06/16 00:45:14;;;;;;;6.85;3.92;;;;;;;;;;5119733;28;20035;-80
2021/06/16 00:47:40;;;;;;;9.10;3.83;;;;;;;;;;5137752;28;20039;-79
2021/06/16 00:50:07;;;;;;;7.50;4.30;;;;;;;;;;5137900;28;20120;-80
2021/06/16 00:52:34;;;;;;;9.25;4.30;;;;;;;;;;5137680;28;20042;-80
2021/06/16 00:55:00;;;;;;;9.65;4.43;;;;;;;;;;5142043;27;20020;-79
2021/06/16 00:57:26;;;;;;;8.70;4.18;;;;;;;;;;5142085;27;20113;-80
2021/06/16 00:59:52;;;;;;;10.55;4.10;;;;;;;;;;5142259;27;20027;-80
2021/06/16 01:02:19;;;;;;;10.40;4.22;;;;;;;;;;5142342;27;20043;-80
2021/06/16 01:04:46;;;;;;;6.57;4.40;;;;;;;;;;5142171;27;20027;-80
2021/06/16 01:07:12;;;;;;;6.03;4.05;;;;;;;;;;5142184;27;20106;-79
2021/06/16 01:10:05;;;;;;;7.07;4.47;;;;;;;;;;5141867;27;20029;-80
2021/06/16 01:12:49;;;;;;;6.82;4.18;;;;;;;;;;5137280;27;20031;-80
2021/06/16 01:15:21;;;;;;;7.63;4.05;;;;;;;;;;5141896;27;20026;-79
2021/06/16 01:17:51;;;;;;;8.93;4.65;;;;;;;;;;5122779;27;20035;-79
2021/06/16 01:20:33;;;;;;;8.98;4.15;;;;;;;;;;5141781;27;20400;-79
2021/06/16 01:22:59;;;;;;;7.13;4.20;;;;;;;;;;5141901;27;20031;-80
2021/06/16 01:25:28;;;;;;;8.27;3.95;;;;;;;;;;5141769;27;20074;-80
2021/06/16 01:27:54;;;;;;;7.88;4.22;;;;;;;;;;5141753;27;20034;-80
2021/06/16 01:30:21;;;;;;;6.95;4.10;;;;;;;;;;5141822;27;20023;-79
2021/06/16 01:32:48;;;;;;;7.28;4.18;;;;;;;;;;5141614;27;20416;-79
2021/06/16 01:35:14;;;;;;;5.63;4.18;;;;;;;;;;5141401;27;20019;-79
2021/06/16 01:37:40;;;;;;;14.23;4.95;;;;;;;;;;5141401;27;20058;-78
2021/06/16 01:40:07;;;;;;;6.63;4.70;;;;;;;;;;5122811;27;20126;-78
2021/06/16 01:42:33;;;;;;;9.75;4.80;;;;;;;;;;5141520;27;20046;-77
2021/06/16 01:45:00;;;;;;;9.60;4.53;;;;;;;;;;5141249;27;20026;-77
2021/06/16 01:47:28;;;;;;;7.28;4.20;;;;;;;;;;5140864;27;20053;-77
2021/06/16 01:49:57;;;;;;;10.68;5.13;;;;;;;;;;5141051;27;20094;-77
2021/06/16 01:52:25;;;;;;;8.48;4.85;;;;;;;;;;5141106;27;20023;-77
2021/06/16 01:54:52;;;;;;;8.10;4.72;;;;;;;;;;5141245;27;20332;-77
2021/06/16 01:57:18;;;;;;;7.93;4.88;;;;;;;;;;5141317;27;20027;-77
2021/06/16 01:59:46;;;;;;;9.40;4.68;;;;;;;;;;5122771;27;20478;-77
2021/06/16 02:02:12;;;;;;;7.25;4.72;;;;;;;;;;5141028;27;20034;-77
2021/06/16 02:04:38;;;;;;;6.13;4.75;;;;;;;;;;5140208;27;20027;-77
2021/06/16 02:07:07;;;;;;;7.35;5.07;;;;;;;;;;5140660;27;20118;-78
2021/06/16 02:09:35;;;;;;;9.52;5.18;;;;;;;;;;5140703;27;20034;-77
2021/06/16 02:12:02;;;;;;;8.90;4.80;;;;;;;;;;5140797;27;20027;-77
2021/06/16 02:14:29;;;;;;;7.20;4.85;;;;;;;;;;5140891;27;20023;-78
2021/06/16 02:16:55;;;;;;;10.27;5.03;;;;;;;;;;5132384;27;20032;-78
2021/06/16 02:19:22;;;;;;;8.35;4.80;;;;;;;;;;5122295;27;20067;-78
2021/06/16 02:21:49;;;;;;;9.80;5.50;;;;;;;;;;5140567;27;20480;-78
2021/06/16 02:24:15;;;;;;;7.20;5.25;;;;;;;;;;5140856;27;20117;-78
2021/06/16 02:26:41;;;;;;;6.97;4.90;;;;;;;;;;5140396;27;20023;-78
2021/06/16 02:29:08;;;;;;;8.32;5.00;;;;;;;;;;5140473;27;20027;-78
2021/06/16 02:31:35;;;;;;;9.52;5.80;;;;;;;;;;5140350;27;20023;-78
2021/06/16 02:34:01;;;;;;;10.15;5.28;;;;;;;;;;5140236;27;20026;-78
2021/06/16 02:36:28;;;;;;;7.97;5.20;;;;;;;;;;5140533;27;20116;-78
2021/06/16 02:38:58;;;;;;;9.18;5.43;;;;;;;;;;5140122;27;20320;-78
2021/06/16 02:41:24;;;;;;;10.30;5.20;;;;;;;;;;5140354;27;20031;-77
2021/06/16 02:43:51;;;;;;;8.90;5.28;;;;;;;;;;5140102;27;20309;-77
2021/06/16 02:46:17;;;;;;;7.65;5.10;;;;;;;;;;5140054;27;20031;-77
2021/06/16 02:48:45;;;;;;;12.57;5.43;;;;;;;;;;5139670;27;20432;-77
2021/06/16 02:51:12;;;;;;;10.02;5.30;;;;;;;;;;5139915;27;20020;-77
2021/06/16 02:53:40;;;;;;;8.57;5.57;;;;;;;;;;5140034;27;20027;-76
2021/06/16 02:56:06;;;;;;;7.30;4.60;;;;;;;;;;5140114;27;20026;-77
2021/06/16 02:58:33;;;;;;;8.10;4.57;;;;;;;;;;5140182;27;20309;-76
2021/06/16 03:01:00;;;;;;;8.25;4.60;;;;;;;;;;5139823;27;20337;-77
2021/06/16 03:03:27;;;;;;;8.27;4.90;;;;;;;;;;5139714;27;20324;-76
2021/06/16 03:05:54;;;;;;;7.93;4.85;;;;;;;;;;5139941;27;20091;-77
2021/06/16 03:08:22;;;;;;;9.30;4.65;;;;;;;;;;5139484;27;20088;-77
2021/06/16 03:10:48;;;;;;;8.13;5.05;;;;;;;;;;5139787;27;20027;-78
2021/06/16 03:13:15;;;;;;;7.90;4.68;;;;;;;;;;5139581;27;20023;-78
2021/06/16 03:15:41;;;;;;;9.80;4.50;;;;;;;;;;5139455;27;20019;-77
2021/06/16 03:18:08;;;;;;;8.30;4.63;;;;;;;;;;5120283;27;20087;-77
2021/06/16 03:20:35;;;;;;;10.35;5.50;;;;;;;;;;5139436;27;20036;-77
2021/06/16 03:23:14;;;;;;;9.50;5.50;;;;;;;;;;5139241;27;20031;-77
2021/06/16 03:25:40;;;;;;;7.50;4.88;;;;;;;;;;5139269;27;20477;-77
2021/06/16 03:28:07;;;;;;;9.20;4.97;;;;;;;;;;5120600;27;20039;-77
2021/06/16 03:30:33;;;;;;;9.25;4.97;;;;;;;;;;5120609;27;20030;-77
2021/06/16 03:33:01;;;;;;;7.63;4.95;;;;;;;;;;5139082;27;20026;-77
2021/06/16 03:35:27;;;;;;;10.05;4.90;;;;;;;;;;5138919;27;20046;-77
2021/06/16 03:37:54;;;;;;;6.85;5.43;;;;;;;;;;5138722;27;20023;-77
2021/06/16 03:40:22;;;;;;;7.50;5.03;;;;;;;;;;5138878;27;20056;-78
2021/06/16 03:42:49;;;;;;;8.88;5.13;;;;;;;;;;5120889;27;20432;-77
2021/06/16 03:45:15;;;;;;;10.30;5.10;;;;;;;;;;5138930;27;20031;-77
2021/06/16 03:47:43;;;;;;;13.55;5.28;;;;;;;;;;5138515;27;20085;-77
2021/06/16 03:50:10;;;;;;;7.43;5.18;;;;;;;;;;5139087;27;20019;-77
2021/06/16 03:52:37;;;;;;;7.05;4.57;;;;;;;;;;5139044;27;20022;-77
2021/06/16 03:55:04;;;;;;;10.50;5.80;;;;;;;;;;5120578;27;20026;-77
2021/06/16 03:57:30;;;;;;;8.30;5.00;;;;;;;;;;5138673;27;20046;-77
2021/06/16 03:59:56;;;;;;;11.70;6.75;;;;;;;;;;5138592;27;20031;-77
2021/06/16 04:02:23;;;;;;;13.77;7.00;;;;;;;;;;5120596;27;20379;-78
2021/06/16 04:04:49;;;;;;;9.82;6.20;;;;;;;;;;5120621;27;20030;-78
2021/06/16 04:07:16;;;;;;;9.63;5.70;;;;;;;;;;5138568;27;20053;-77
2021/06/16 04:09:43;;;;;;;9.18;5.20;;;;;;;;;;5138606;27;20024;-78
2021/06/16 04:12:10;;;;;;;10.73;5.13;;;;;;;;;;5119881;27;20058;-78
2021/06/16 04:14:38;;;;;;;10.88;5.30;;;;;;;;;;5138378;27;20015;-77
2021/06/16 04:17:05;;;;;;;11.48;6.10;;;;;;;;;;5138391;27;20396;-77
2021/06/16 04:19:31;;;;;;;11.80;5.05;;;;;;;;;;5138372;27;20359;-78
2021/06/16 04:21:57;;;;;;;9.10;5.57;;;;;;;;;;5138494;27;20351;-77
2021/06/16 04:24:24;;;;;;;13.40;5.63;;;;;;;;;;5138304;27;20341;-77
2021/06/16 04:26:50;;;;;;;8.07;5.45;;;;;;;;;;5138248;27;20023;-77
2021/06/16 04:29:16;;;;;;;8.77;5.55;;;;;;;;;;5119792;27;20028;-77
2021/06/16 04:31:42;;;;;;;7.22;5.13;;;;;;;;;;5138048;27;20286;-78
2021/06/16 04:34:08;;;;;;;11.52;5.60;;;;;;;;;;5138177;27;20015;-78
2021/06/16 04:36:34;;;;;;;10.13;5.90;;;;;;;;;;5138484;27;20030;-78
2021/06/16 04:39:00;;;;;;;12.18;5.55;;;;;;;;;;5138023;27;20030;-77
2021/06/16 04:41:26;;;;;;;9.93;5.80;;;;;;;;;;5138140;27;20030;-77
2021/06/16 04:43:53;;;;;;;11.35;6.22;;;;;;;;;;5138025;28;20027;-78
2021/06/16 04:46:19;;;;;;;11.60;6.28;;;;;;;;;;5114382;28;20031;-78
2021/06/16 04:48:45;;;;;;;12.98;5.97;;;;;;;;;;5116904;28;20055;-77
2021/06/16 04:51:11;;;;;;;8.18;5.68;;;;;;;;;;5138276;28;20030;-77
2021/06/16 04:53:37;;;;;;;11.98;6.47;;;;;;;;;;5138069;28;20015;-76
2021/06/16 04:56:04;;;;;;;10.93;5.45;;;;;;;;;;5119263;28;20072;-76
2021/06/16 04:58:30;;;;;;;12.70;6.03;;;;;;;;;;5138054;28;20072;-77
2021/06/16 05:00:57;;;;;;;11.40;6.30;;;;;;;;;;5137970;28;20035;-77
2021/06/16 05:03:23;;;;;;;9.70;5.50;;;;;;;;;;5137887;28;20768;-77
2021/06/16 05:05:49;;;;;;;11.20;5.78;;;;;;;;;;5137835;28;20348;-78
2021/06/16 05:08:15;;;;;;;22.10;9.88;;;;;;;;;;5137997;28;20313;-78
2021/06/16 05:10:41;;;;;;;11.63;6.25;;;;;;;;;;5138048;28;20058;-78
2021/06/16 05:13:07;;;;;;;12.43;6.00;;;;;;;;;;5137962;28;20019;-78
2021/06/16 05:15:33;;;;;;;11.55;6.68;;;;;;;;;;5137794;28;20019;-77
2021/06/16 05:17:59;;;;;;;9.40;5.32;;;;;;;;;;5137731;28;20068;-77
2021/06/16 05:20:26;;;;;;;12.75;6.30;;;;;;;;;;5106077;28;20360;-76
2021/06/16 05:22:56;;;;;;;12.07;6.05;;;;;;;;;;5136897;28;20027;-77
2021/06/16 05:25:22;;;;;;;9.32;5.50;;;;;;;;;;5137467;28;20048;-77
2021/06/16 05:27:48;;;;;;;10.73;5.90;;;;;;;;;;5137347;28;20435;-77
2021/06/16 05:30:14;;;;;;;10.52;5.57;;;;;;;;;;5137628;28;20027;-77
2021/06/16 05:32:40;;;;;;;11.32;5.80;;;;;;;;;;5118776;28;20054;-78
2021/06/16 05:35:07;;;;;;;14.18;6.07;;;;;;;;;;5137817;28;20019;-77
2021/06/16 05:37:33;;;;;;;8.93;5.68;;;;;;;;;;5119430;28;20432;-77
2021/06/16 05:39:59;;;;;;;16.05;6.45;;;;;;;;;;5137880;27;20306;-77
2021/06/16 05:42:25;;;;;;;10.80;5.65;;;;;;;;;;5141304;27;20023;-77
2021/06/16 05:44:51;;;;;;;8.68;5.50;;;;;;;;;;5141376;27;20056;-77
2021/06/16 05:47:17;;;;;;;10.27;5.60;;;;;;;;;;5140983;27;20047;-77
2021/06/16 05:49:43;;;;;;;8.23;5.22;;;;;;;;;;5141411;27;20031;-77
2021/06/16 05:52:09;;;;;;;8.50;5.70;;;;;;;;;;5141058;27;20015;-77
2021/06/16 05:54:38;;;;;;;6.43;5.15;;;;;;;;;;5141015;27;20023;-76
2021/06/16 05:57:05;;;;;;;9.20;5.40;;;;;;;;;;5141052;27;20024;-77
2021/06/16 05:59:33;;;;;;;15.00;5.97;;;;;;;;;;5140899;27;20020;-77
2021/06/16 06:02:00;;;;;;;8.02;5.53;;;;;;;;;;5140889;27;20019;-77
2021/06/16 06:04:26;;;;;;;9.35;5.30;;;;;;;;;;5122740;27;20051;-77
2021/06/16 06:06:52;;;;;;;6.55;4.90;;;;;;;;;;5140860;27;20027;-76
2021/06/16 06:09:18;;;;;;;6.82;5.50;;;;;;;;;;5140907;27;20030;-77
2021/06/16 06:11:44;;;;;;;14.85;5.43;;;;;;;;;;5140466;27;20050;-79
2021/06/16 06:14:13;;;;;;;8.00;5.80;;;;;;;;;;5140460;27;20068;-77
2021/06/16 06:16:40;;;;;;;7.55;5.20;;;;;;;;;;5140461;27;20072;-77
2021/06/16 06:19:06;;;;;;;7.68;4.93;;;;;;;;;;5140550;27;20015;-77
2021/06/16 06:21:32;;;;;;;11.75;6.35;;;;;;;;;;5140611;27;20030;-77
2021/06/16 06:24:01;;;;;;;8.63;4.95;;;;;;;;;;5140454;27;20019;-77
2021/06/16 06:26:27;;;;;;;7.60;4.60;;;;;;;;;;5140437;27;20361;-77
2021/06/16 06:28:54;;;;;;;12.20;5.32;;;;;;;;;;5140610;27;20026;-78
2021/06/16 06:31:20;;;;;;;8.90;5.38;;;;;;;;;;5140367;27;20024;-76
2021/06/16 06:33:46;;;;;;;7.97;5.25;;;;;;;;;;5140306;27;20397;-77
2021/06/16 06:36:12;;;;;;;11.85;5.93;;;;;;;;;;5140296;27;20405;-77
2021/06/16 06:38:38;;;;;;;9.65;5.10;;;;;;;;;;5134411;27;20028;-77
2021/06/16 06:41:04;;;;;;;11.48;4.85;;;;;;;;;;5101604;28;20024;-77
2021/06/16 06:43:30;;;;;;;10.20;4.18;;;;;;;;;;5132331;27;20026;-77
2021/06/16 06:45:57;;;;;;;9.90;3.95;;;;;;;;;;5139920;27;20106;-76
2021/06/16 06:48:23;;;;;;;4.95;3.70;;;;;;;;;;5139896;27;20126;-77
2021/06/16 06:50:50;;;;;;;5.72;4.30;;;;;;;;;;5139674;27;20024;-76
2021/06/16 06:53:17;;;;;;;6.18;4.03;;;;;;;;;;5119266;27;20042;-76
2021/06/16 06:55:43;;;;;;;4.05;3.53;;;;;;;;;;5139761;27;20015;-77
2021/06/16 06:58:10;;;;;;;6.03;4.00;;;;;;;;;;5139784;27;20038;-77
2021/06/16 07:00:36;;;;;;;7.13;3.90;;;;;;;;;;5139827;27;20034;-76
2021/06/16 07:03:02;;;;;;;4.97;3.30;;;;;;;;;;5130773;27;20031;-76
2021/06/16 07:05:28;;;;;;;8.68;3.83;;;;;;;;;;5119080;28;20034;-78
2021/06/16 07:07:55;;;;;;;5.20;3.50;;;;;;;;;;5118940;28;20402;-76
2021/06/16 07:10:21;;;;;;;10.48;3.72;;;;;;;;;;5118865;28;20395;-76
2021/06/16 07:12:47;;;;;;;17.98;12.00;;;;;;;;;;5100688;28;20317;-77
2021/06/16 07:15:13;;;;;;;20.58;14.85;;;;;;;;;;5118973;28;20027;-76
2021/06/16 07:17:39;;;;;;;8.02;4.25;;;;;;;;;;5100757;28;20112;-76
2021/06/16 07:20:06;;;;;;;6.80;3.90;;;;;;;;;;5119046;28;20023;-77
2021/06/16 07:22:32;;;;;;;6.43;3.78;;;;;;;;;;5118878;28;20274;-77
2021/06/16 07:24:59;;;;;;;6.60;3.38;;;;;;;;;;5118817;28;20104;-76
2021/06/16 07:27:25;;;;;;;5.90;3.85;;;;;;;;;;5118596;28;20314;-77
2021/06/16 07:29:51;;;;;;;8.05;3.70;;;;;;;;;;5100143;28;20321;-77
2021/06/16 07:32:17;;;;;;;6.28;4.07;;;;;;;;;;5118543;28;20370;-78
2021/06/16 07:34:44;;;;;;;9.40;4.03;;;;;;;;;;5100321;28;20035;-76
2021/06/16 07:37:10;;;;;;;7.70;3.50;;;;;;;;;;5118772;28;20047;-76
2021/06/16 07:39:36;;;;;;;6.80;4.05;;;;;;;;;;5118439;28;20024;-76
2021/06/16 07:42:02;;;;;;;7.78;3.30;;;;;;;;;;5118521;28;20024;-76
2021/06/16 07:44:29;;;;;;;5.05;3.53;;;;;;;;;;5100463;28;20548;-76
2021/06/16 07:46:55;;;;;;;7.10;3.03;;;;;;;;;;5118166;28;20076;-76
2021/06/16 07:49:21;;;;;;;4.05;2.88;;;;;;;;;;5118675;28;20027;-76
2021/06/16 07:51:47;;;;;;;5.70;3.08;;;;;;;;;;5118547;28;20024;-76
2021/06/16 07:54:13;;;;;;;8.35;2.90;;;;;;;;;;5118354;28;20019;-76
2021/06/16 07:56:39;;;;;;;6.85;3.08;;;;;;;;;;5117931;28;20103;-76
2021/06/16 07:59:06;;;;;;;8.98;3.30;;;;;;;;;;5118071;28;20413;-76
2021/06/16 08:01:32;;;;;;;8.07;3.35;;;;;;;;;;5118057;28;20401;-78
2021/06/16 08:03:58;;;;;;;8.27;3.28;;;;;;;;;;5117429;28;20437;-76
2021/06/16 08:06:24;;;;;;;6.55;3.30;;;;;;;;;;5117984;28;20336;-76
2021/06/16 08:08:50;;;;;;;7.15;3.03;;;;;;;;;;5118002;28;20047;-75
2021/06/16 08:11:16;;;;;;;6.78;3.20;;;;;;;;;;5118020;28;20015;-76
2021/06/16 08:13:42;;;;;;;5.38;3.17;;;;;;;;;;5099518;28;20062;-76
2021/06/16 08:16:08;;;;;;;8.20;3.10;;;;;;;;;;5117836;28;20031;-76
2021/06/16 08:18:34;;;;;;;5.00;2.90;;;;;;;;;;5117794;28;20031;-75
2021/06/16 08:21:01;;;;;;;7.35;2.80;;;;;;;;;;5117816;28;20402;-76
2021/06/16 08:23:27;;;;;;;8.00;2.88;;;;;;;;;;5099820;28;20024;-75
2021/06/16 08:25:53;;;;;;;8.30;3.17;;;;;;;;;;5117947;28;20031;-76
2021/06/16 08:28:19;;;;;;;4.95;2.63;;;;;;;;;;5117908;28;20024;-76
2021/06/16 08:30:45;;;;;;;5.88;2.72;;;;;;;;;;5117855;28;20108;-76
2021/06/16 08:33:11;;;;;;;5.60;3.30;;;;;;;;;;5117557;28;20019;-76
2021/06/16 08:35:37;;;;;;;5.13;2.90;;;;;;;;;;5099235;28;20035;-76
2021/06/16 08:38:04;;;;;;;3.53;2.30;;;;;;;;;;5117878;28;20047;-76
2021/06/16 08:40:30;;;;;;;3.65;2.25;;;;;;;;;;5117679;28;20316;-76
2021/06/16 08:42:56;;;;;;;5.00;2.30;;;;;;;;;;5117725;28;20338;-75
2021/06/16 08:45:22;;;;;;;2.95;2.30;;;;;;;;;;5117339;28;20028;-76
2021/06/16 08:47:49;;;;;;;5.68;2.42;;;;;;;;;;5117299;28;20058;-75
2021/06/16 08:50:16;;;;;;;2.75;2.20;;;;;;;;;;5117587;28;20015;-79
2021/06/16 08:52:42;;;;;;;4.32;2.33;;;;;;;;;;5117705;28;20064;-75
2021/06/16 08:55:10;;;;;;;4.72;1.90;;;;;;;;;;5117414;28;20454;-75
2021/06/16 08:57:36;;;;;;;5.35;2.10;;;;;;;;;;5117406;28;20031;-75
2021/06/16 09:00:04;;;;;;;3.88;2.05;;;;;;;;;;5117148;28;20153;-75
2021/06/16 09:02:30;;;;;;;5.80;2.60;;;;;;;;;;5117338;28;20051;-75
2021/06/16 09:04:56;;;;;;;3.60;2.28;;;;;;;;;;5117331;28;20020;-75
2021/06/16 09:07:23;;;;;;;4.05;2.10;;;;;;;;;;5117484;28;20024;-75
2021/06/16 09:10:04;;;;;;;3.25;2.03;;;;;;;;;;5117417;28;20140;-75
2021/06/16 09:12:31;;;;;;;3.88;2.17;;;;;;;;;;5117334;28;20355;-75
2021/06/16 09:14:57;;;;;;;3.90;2.10;;;;;;;;;;5119175;28;20028;-75
2021/06/16 09:17:24;;;;;;;3.45;2.20;;;;;;;;;;5121589;28;20110;-75
2021/06/16 09:20:00;;;;;;;5.13;2.20;;;;;;;;;;5121476;28;20046;-75
2021/06/16 09:22:29;;;;;;;4.22;2.35;;;;;;;;;;5102842;28;20092;-75
2021/06/16 09:24:56;;;;;;;5.32;2.00;;;;;;;;;;5121113;28;20024;-75
2021/06/16 09:27:41;;;;;;;4.32;2.20;;;;;;;;;;5120993;28;20028;-75
2021/06/16 09:30:19;;;;;;;3.47;1.98;;;;;;;;;;5121061;28;20054;-75
2021/06/16 09:32:46;;;;;;;6.22;2.10;;;;;;;;;;5121169;28;20407;-75
2021/06/16 09:35:25;;;;;;;4.13;1.90;;;;;;;;;;5120963;28;20309;-76
2021/06/16 09:37:51;;;;;;;4.03;1.90;;;;;;;;;;5120807;28;20039;-75
2021/06/16 09:40:30;;;;;;;4.55;2.30;;;;;;;;;;5120828;28;20023;-75
2021/06/16 09:43:00;;;;;;;4.53;2.40;;;;;;;;;;5121115;28;20027;-76
2021/06/16 09:45:27;;;;;;;3.63;2.13;;;;;;;;;;5120947;28;20020;-75
2021/06/16 09:47:53;;;;;;;6.38;2.28;;;;;;;;;;5120596;28;20078;-75
2021/06/16 09:50:24;;;;;;;4.78;2.20;;;;;;;;;;5120705;28;20026;-75
2021/06/16 09:52:51;;;;;;;2.97;2.30;;;;;;;;;;5102029;28;20034;-76
2021/06/16 09:55:29;;;;;;;6.00;2.22;;;;;;;;;;5102440;28;20321;-75
2021/06/16 09:57:59;;;;;;;12.32;2.53;;;;;;;;;;5102462;28;20028;-76
2021/06/16 10:00:34;;;;;;;5.22;2.33;;;;;;;;;;5120503;28;20028;-76
2021/06/16 10:03:08;;;;;;;5.60;2.40;;;;;;;;;;5120478;28;20024;-75
2021/06/16 10:05:35;;;;;;;7.07;2.65;;;;;;;;;;5120324;28;20024;-75
2021/06/16 10:08:01;;;;;;;3.65;2.10;;;;;;;;;;5120336;28;20050;-76
2021/06/16 10:10:27;;;;;;;5.75;2.20;;;;;;;;;;5101821;28;20042;-75
2021/06/16 10:12:54;;;;;;;5.22;2.17;;;;;;;;;;5101865;28;20413;-76
2021/06/16 10:15:21;;;;;;;3.58;1.90;;;;;;;;;;5120317;28;20034;-76
2021/06/16 10:17:47;;;;;;;2.55;2.10;;;;;;;;;;5120350;28;20417;-75
2021/06/16 10:20:15;;;;;;;4.18;2.15;;;;;;;;;;5102171;28;20024;-75
2021/06/16 10:22:41;;;;;;;4.20;1.92;;;;;;;;;;5120126;28;20392;-76
2021/06/16 10:25:08;;;;;;;3.20;2.17;;;;;;;;;;5101984;28;20316;-76
2021/06/16 10:27:39;;;;;;;4.88;2.03;;;;;;;;;;5118940;28;20436;-75
2021/06/16 10:30:12;;;;;;;62.60;49.97;;;;;;;;;;5120003;28;20024;-75
2021/06/16 10:32:41;;;;;;;3.95;2.55;;;;;;;;;;5119924;28;20020;-75
2021/06/16 10:35:08;;;;;;;4.43;2.17;;;;;;;;;;5119992;28;20034;-75
2021/06/16 10:37:42;;;;;;;4.65;1.80;;;;;;;;;;5119986;28;20107;-76
2021/06/16 10:40:11;;;;;;;8.93;1.83;;;;;;;;;;5119688;28;20023;-76
2021/06/16 10:42:56;;;;;;;6.75;2.05;;;;;;;;;;5101643;28;20409;-75
2021/06/16 10:45:22;;;;;;;3.95;1.98;;;;;;;;;;5101596;28;20034;-76
2021/06/16 10:48:01;;;;;;;4.70;2.00;;;;;;;;;;5118945;28;20425;-76
2021/06/16 10:50:53;;;;;;;4.53;1.88;;;;;;;;;;5101090;28;20028;-76
2021/06/16 10:53:26;;;;;;;3.53;1.88;;;;;;;;;;5107686;28;20031;-76
2021/06/16 10:55:52;;;;;;;3.60;2.00;;;;;;;;;;5119369;28;20027;-74
2021/06/16 10:58:19;;;;;;;2.63;2.13;;;;;;;;;;5119450;28;20325;-75
2021/06/16 11:01:04;;;;;;;4.05;2.28;;;;;;;;;;5119454;28;20122;-74
2021/06/16 11:03:50;;;;;;;3.30;1.85;;;;;;;;;;5119507;28;20034;-75
2021/06/16 11:06:29;;;;;;;5.05;2.22;;;;;;;;;;5119433;28;20035;-74
2021/06/16 11:08:55;;;;;;;2.33;1.77;;;;;;;;;;5100590;28;20074;-75
2021/06/16 11:11:21;;;;;;;2.78;1.80;;;;;;;;;;5119326;28;20084;-75
2021/06/16 11:13:47;;;;;;;3.72;2.20;;;;;;;;;;5119054;28;20020;-74
2021/06/16 11:16:32;;;;;;;1.85;1.60;;;;;;;;;;5119110;28;20028;-75
2021/06/16 11:19:17;;;;;;;4.28;1.88;;;;;;;;;;5118846;28;20035;-75
2021/06/16 11:21:43;;;;;;;6.38;2.05;;;;;;;;;;5119038;28;20024;-75
2021/06/16 11:24:09;;;;;;;2.85;1.60;;;;;;;;;;5118700;28;20035;-75
2021/06/16 11:26:45;;;;;;;4.18;1.50;;;;;;;;;;5100814;28;20028;-75
2021/06/16 11:29:31;;;;;;;1.73;1.42;;;;;;;;;;5118762;28;20405;-75
2021/06/16 11:32:11;;;;;;;6.38;1.70;;;;;;;;;;5118955;28;20094;-75
2021/06/16 11:34:53;;;;;;;5.57;2.08;;;;;;;;;;5100648;28;20036;-75
2021/06/16 11:37:38;;;;;;;2.67;1.67;;;;;;;;;;5118089;28;20036;-75
2021/06/16 11:40:04;;;;;;;5.78;2.00;;;;;;;;;;5118435;28;20019;-75
2021/06/16 11:42:31;;;;;;;4.18;1.80;;;;;;;;;;5118456;28;20421;-75
2021/06/16 11:44:57;;;;;;;5.68;1.83;;;;;;;;;;5118431;28;20031;-76
2021/06/16 11:47:25;;;;;;;3.17;1.95;;;;;;;;;;5117901;28;20048;-75
2021/06/16 11:49:58;;;;;;;5.43;1.75;;;;;;;;;;5118310;28;20024;-75
2021/06/16 11:52:27;;;;;;;3.42;1.63;;;;;;;;;;5099865;28;20030;-75
2021/06/16 11:54:55;;;;;;;5.72;2.10;;;;;;;;;;5118045;28;20020;-75
2021/06/16 11:57:26;;;;;;;7.60;1.58;;;;;;;;;;5118382;28;20027;-74
2021/06/16 11:59:52;;;;;;;5.30;1.63;;;;;;;;;;5118241;28;20023;-75
2021/06/16 12:02:23;;;;;;;3.75;1.60;;;;;;;;;;5118208;28;20023;-75
2021/06/16 12:04:52;;;;;;;5.75;1.92;;;;;;;;;;5117759;28;20035;-75
2021/06/16 12:07:24;;;;;;;6.13;1.90;;;;;;;;;;5118090;28;20035;-75
2021/06/16 12:09:52;;;;;;;4.72;1.70;;;;;;;;;;5099975;28;20434;-75
2021/06/16 12:12:18;;;;;;;5.88;2.20;;;;;;;;;;5117916;28;20024;-75
2021/06/16 12:14:44;;;;;;;4.07;1.92;;;;;;;;;;5118111;28;20143;-75
2021/06/16 12:17:10;;;;;;;5.25;1.80;;;;;;;;;;5117887;28;20059;-75
2021/06/16 12:19:37;;;;;;;5.18;1.92;;;;;;;;;;5099635;28;20119;-75
2021/06/16 12:22:08;;;;;;;3.28;1.60;;;;;;;;;;5117775;28;20423;-75
2021/06/16 12:24:36;;;;;;;3.20;1.70;;;;;;;;;;5101717;28;20421;-75
2021/06/16 12:27:20;;;;;;;1.95;1.50;;;;;;;;;;5129316;27;20042;-74
2021/06/16 12:29:47;;;;;;;4.05;1.48;;;;;;;;;;5138160;27;20106;-74
2021/06/16 12:32:29;;;;;;;3.50;1.60;;;;;;;;;;5138182;27;20026;-74
2021/06/16 12:37:52;;;;;;;5.80;1.75;;;;;;;;;;5138243;27;20031;-75
2021/06/16 12:40:19;;;;;;;3.85;1.50;;;;;;;;;;5119855;28;20297;-74
2021/06/16 12:42:48;;;;;;;2.85;1.52;;;;;;;;;;5138145;27;20290;-74
2021/06/16 12:45:29;;;;;;;6.18;1.70;;;;;;;;;;5137927;28;20027;-74
2021/06/16 12:47:56;;;;;;;2.72;1.55;;;;;;;;;;5137993;28;20336;-74
2021/06/16 12:50:27;;;;;;;4.78;1.42;;;;;;;;;;5137661;27;20472;-74
2021/06/16 12:52:53;;;;;;;5.20;1.50;;;;;;;;;;5138335;28;20043;-74
2021/06/16 12:55:21;;;;;;;2.80;1.85;;;;;;;;;;5137821;28;20502;-74
2021/06/16 12:57:49;;;;;;;4.05;1.38;;;;;;;;;;5138232;28;20027;-74
2021/06/16 13:00:17;;;;;;;2.75;1.30;;;;;;;;;;5137966;28;20062;-74
2021/06/16 13:02:43;;;;;;;3.28;1.60;;;;;;;;;;5138261;28;20015;-74
2021/06/16 13:05:11;;;;;;;4.10;1.63;;;;;;;;;;5138125;28;20020;-74
2021/06/16 13:07:41;;;;;;;3.22;1.80;;;;;;;;;;5137737;28;20019;-75
2021/06/16 13:10:09;;;;;;;3.58;1.60;;;;;;;;;;5137787;28;20108;-74
2021/06/16 13:12:35;;;;;;;4.40;1.92;;;;;;;;;;5137968;28;20102;-74
2021/06/16 13:15:04;;;;;;;3.83;1.70;;;;;;;;;;5137967;28;20031;-74
2021/06/16 13:17:40;;;;;;;4.22;1.83;;;;;;;;;;5137618;28;20362;-75
2021/06/16 13:20:07;;;;;;;4.50;1.83;;;;;;;;;;5137851;28;20064;-74
2021/06/16 13:22:34;;;;;;;4.13;1.48;;;;;;;;;;5118997;28;20031;-75
2021/06/16 13:25:01;;;;;;;3.33;1.70;;;;;;;;;;5137531;28;20320;-74
2021/06/16 13:27:27;;;;;;;2.83;1.42;;;;;;;;;;5137851;28;20378;-74
2021/06/16 13:30:04;;;;;;;1.83;1.40;;;;;;;;;;5137882;28;20038;-74
2021/06/16 13:32:41;;;;;;;2.53;1.45;;;;;;;;;;5137809;28;20023;-74
2021/06/16 13:35:07;;;;;;;3.95;1.58;;;;;;;;;;5119380;28;20035;-74
2021/06/16 13:37:34;;;;;;;6.68;2.17;;;;;;;;;;5137633;28;20102;-74
2021/06/16 13:40:00;;;;;;;4.95;1.60;;;;;;;;;;5137545;28;20054;-74
2021/06/16 13:42:26;;;;;;;1.60;1.35;;;;;;;;;;5137430;28;20030;-74
2021/06/16 13:44:52;;;;;;;3.90;1.70;;;;;;;;;;5137314;28;20028;-74
2021/06/16 13:47:18;;;;;;;5.95;1.60;;;;;;;;;;5136943;28;20070;-74
2021/06/16 13:49:44;;;;;;;2.20;1.40;;;;;;;;;;5137612;28;20103;-74
2021/06/16 13:52:10;;;;;;;2.33;1.30;;;;;;;;;;5137485;28;20023;-75
2021/06/16 13:54:36;;;;;;;1.98;1.50;;;;;;;;;;5137259;28;20592;-74
2021/06/16 13:57:02;;;;;;;3.90;1.48;;;;;;;;;;5137456;28;20022;-74
2021/06/16 13:59:28;;;;;;;2.38;1.42;;;;;;;;;;5137667;28;20046;-75
2021/06/16 14:01:54;;;;;;;4.80;1.40;;;;;;;;;;5139260;27;20034;-74
2021/06/16 14:04:20;;;;;;;1.52;1.40;;;;;;;;;;5141155;27;20023;-74
2021/06/16 14:06:46;;;;;;;5.57;1.60;;;;;;;;;;5141117;27;20029;-75
2021/06/16 14:09:15;;;;;;;4.13;1.60;;;;;;;;;;5140774;27;20047;-74
2021/06/16 14:11:42;;;;;;;2.17;1.52;;;;;;;;;;5122252;27;20023;-75
2021/06/16 14:14:08;;;;;;;3.55;1.70;;;;;;;;;;5140998;27;20030;-75
2021/06/16 14:16:35;;;;;;;2.35;1.42;;;;;;;;;;5122560;27;20110;-74
2021/06/16 14:19:01;;;;;;;4.97;1.60;;;;;;;;;;5141004;27;20148;-74
2021/06/16 14:21:27;;;;;;;3.03;1.38;;;;;;;;;;5140831;27;20030;-74
2021/06/16 14:23:53;;;;;;;1.95;1.35;;;;;;;;;;5121894;27;20126;-74
2021/06/16 14:26:19;;;;;;;4.05;1.60;;;;;;;;;;5140566;27;20285;-74
2021/06/16 14:28:45;;;;;;;1.95;1.63;;;;;;;;;;5140543;27;20453;-74
2021/06/16 14:31:11;;;;;;;3.35;1.70;;;;;;;;;;5122399;27;20023;-74
2021/06/16 14:33:37;;;;;;;2.78;1.70;;;;;;;;;;5140735;27;20338;-74
2021/06/16 14:36:04;;;;;;;3.72;1.65;;;;;;;;;;5122190;27;20024;-75
2021/06/16 14:38:30;;;;;;;5.03;1.70;;;;;;;;;;5140313;27;20041;-74
2021/06/16 14:40:57;;;;;;;5.25;1.63;;;;;;;;;;5139913;27;20023;-74
2021/06/16 14:43:23;;;;;;;3.15;1.70;;;;;;;;;;5140413;27;20023;-74
2021/06/16 14:45:49;;;;;;;2.60;1.40;;;;;;;;;;5139697;27;20027;-74
2021/06/16 14:48:15;;;;;;;2.50;1.45;;;;;;;;;;5140023;27;20051;-75